sensor_id;sensor_type;location;lat;lon;timestamp;P1;durP1;ratioP1;P2;durP2;ratioP2
47659;SDS011;33403;43.608;1.458;2023-04-26T00:01:21;6.20;;;4.55;;
47659;SDS011;33403;43.608;1.458;2023-04-26T00:03:47;4.50;;;4.00;;
47659;SDS011;33403;43.608;1.458;2023-04-26T00:06:13;5.63;;;4.30;;
47659;SDS011;33403;43.608;1.458;2023-04-26T00:08:40;5.55;;;4.40;;
47659;SDS011;33403;43.608;1.458;2023-04-26T00:11:07;5.60;;;4.30;;
47659;SDS011;33403;43.608;1.458;2023-04-26T00:13:33;5.57;;;4.35;;
47659;SDS011;33403;43.608;1.458;2023-04-26T00:15:58;5.85;;;4.50;;
47659;SDS011;33403;43.608;1.458;2023-04-26T00:18:24;5.70;;;4.20;;
47659;SDS011;33403;43.608;1.458;2023-04-26T00:20:50;5.72;;;4.57;;
47659;SDS011;33403;43.608;1.458;2023-04-26T00:23:15;5.18;;;4.10;;
47659;SDS011;33403;43.608;1.458;2023-04-26T00:25:42;4.80;;;4.28;;
47659;SDS011;33403;43.608;1.458;2023-04-26T00:28:08;5.80;;;4.20;;
47659;SDS011;33403;43.608;1.458;2023-04-26T00:30:34;7.20;;;4.30;;
47659;SDS011;33403;43.608;1.458;2023-04-26T00:33:01;6.82;;;4.38;;
47659;SDS011;33403;43.608;1.458;2023-04-26T00:35:27;6.18;;;4.53;;
47659;SDS011;33403;43.608;1.458;2023-04-26T00:37:53;4.97;;;3.92;;
47659;SDS011;33403;43.608;1.458;2023-04-26T00:40:18;5.93;;;4.45;;
47659;SDS011;33403;43.608;1.458;2023-04-26T00:42:44;6.05;;;4.43;;
47659;SDS011;33403;43.608;1.458;2023-04-26T00:45:10;7.63;;;4.82;;
47659;SDS011;33403;43.608;1.458;2023-04-26T00:47:36;6.13;;;4.60;;
47659;SDS011;33403;43.608;1.458;2023-04-26T00:50:02;6.00;;;4.72;;
47659;SDS011;33403;43.608;1.458;2023-04-26T00:52:28;6.13;;;4.65;;
47659;SDS011;33403;43.608;1.458;2023-04-26T00:54:54;6.05;;;4.85;;
47659;SDS011;33403;43.608;1.458;2023-04-26T00:57:21;6.57;;;4.72;;
47659;SDS011;33403;43.608;1.458;2023-04-26T00:59:47;5.72;;;4.78;;
47659;SDS011;33403;43.608;1.458;2023-04-26T01:02:13;6.93;;;4.70;;
47659;SDS011;33403;43.608;1.458;2023-04-26T01:04:40;6.68;;;4.90;;
47659;SDS011;33403;43.608;1.458;2023-04-26T01:07:06;5.22;;;4.72;;
47659;SDS011;33403;43.608;1.458;2023-04-26T01:09:32;5.57;;;4.70;;
47659;SDS011;33403;43.608;1.458;2023-04-26T01:11:58;6.43;;;4.72;;
47659;SDS011;33403;43.608;1.458;2023-04-26T01:14:25;7.35;;;4.68;;
47659;SDS011;33403;43.608;1.458;2023-04-26T01:16:51;6.93;;;4.80;;
47659;SDS011;33403;43.608;1.458;2023-04-26T01:19:17;6.22;;;4.90;;
47659;SDS011;33403;43.608;1.458;2023-04-26T01:21:43;5.95;;;4.90;;
47659;SDS011;33403;43.608;1.458;2023-04-26T01:24:09;7.10;;;5.07;;
47659;SDS011;33403;43.608;1.458;2023-04-26T01:26:39;6.35;;;4.97;;
47659;SDS011;33403;43.608;1.458;2023-04-26T01:29:12;7.13;;;5.45;;
47659;SDS011;33403;43.608;1.458;2023-04-26T01:31:38;5.10;;;4.60;;
47659;SDS011;33403;43.608;1.458;2023-04-26T01:34:04;6.10;;;4.60;;
47659;SDS011;33403;43.608;1.458;2023-04-26T01:36:30;6.05;;;4.88;;
47659;SDS011;33403;43.608;1.458;2023-04-26T01:38:56;7.47;;;4.90;;
47659;SDS011;33403;43.608;1.458;2023-04-26T01:41:22;6.70;;;5.03;;
47659;SDS011;33403;43.608;1.458;2023-04-26T01:43:48;8.40;;;4.80;;
47659;SDS011;33403;43.608;1.458;2023-04-26T01:46:14;6.40;;;5.10;;
47659;SDS011;33403;43.608;1.458;2023-04-26T01:48:40;8.43;;;5.57;;
47659;SDS011;33403;43.608;1.458;2023-04-26T01:51:06;7.18;;;5.38;;
47659;SDS011;33403;43.608;1.458;2023-04-26T01:53:31;6.22;;;4.97;;
47659;SDS011;33403;43.608;1.458;2023-04-26T01:56:01;5.75;;;4.90;;
47659;SDS011;33403;43.608;1.458;2023-04-26T01:58:30;6.57;;;5.25;;
47659;SDS011;33403;43.608;1.458;2023-04-26T02:01:03;6.68;;;4.95;;
47659;SDS011;33403;43.608;1.458;2023-04-26T02:03:30;7.35;;;5.40;;
47659;SDS011;33403;43.608;1.458;2023-04-26T02:05:55;6.47;;;4.97;;
47659;SDS011;33403;43.608;1.458;2023-04-26T02:08:21;6.50;;;5.20;;
47659;SDS011;33403;43.608;1.458;2023-04-26T02:10:47;5.43;;;4.68;;
47659;SDS011;33403;43.608;1.458;2023-04-26T02:13:13;6.65;;;5.32;;
47659;SDS011;33403;43.608;1.458;2023-04-26T02:15:39;7.93;;;5.80;;
47659;SDS011;33403;43.608;1.458;2023-04-26T02:18:05;6.63;;;5.63;;
47659;SDS011;33403;43.608;1.458;2023-04-26T02:20:31;7.43;;;5.28;;
47659;SDS011;33403;43.608;1.458;2023-04-26T02:22:57;7.88;;;5.93;;
47659;SDS011;33403;43.608;1.458;2023-04-26T02:25:22;7.38;;;5.38;;
47659;SDS011;33403;43.608;1.458;2023-04-26T02:27:48;7.22;;;5.80;;
47659;SDS011;33403;43.608;1.458;2023-04-26T02:30:14;8.27;;;6.07;;
47659;SDS011;33403;43.608;1.458;2023-04-26T02:32:40;7.97;;;5.65;;
47659;SDS011;33403;43.608;1.458;2023-04-26T02:35:06;7.20;;;5.43;;
47659;SDS011;33403;43.608;1.458;2023-04-26T02:37:33;6.20;;;5.38;;
47659;SDS011;33403;43.608;1.458;2023-04-26T02:39:59;10.13;;;5.95;;
47659;SDS011;33403;43.608;1.458;2023-04-26T02:42:24;6.65;;;5.50;;
47659;SDS011;33403;43.608;1.458;2023-04-26T02:44:50;6.55;;;5.63;;
47659;SDS011;33403;43.608;1.458;2023-04-26T02:47:16;7.95;;;5.95;;
47659;SDS011;33403;43.608;1.458;2023-04-26T02:49:42;10.07;;;5.93;;
47659;SDS011;33403;43.608;1.458;2023-04-26T02:52:07;7.43;;;5.80;;
47659;SDS011;33403;43.608;1.458;2023-04-26T02:54:33;7.47;;;5.70;;
47659;SDS011;33403;43.608;1.458;2023-04-26T02:56:58;8.93;;;6.15;;
47659;SDS011;33403;43.608;1.458;2023-04-26T02:59:24;8.57;;;6.18;;
47659;SDS011;33403;43.608;1.458;2023-04-26T03:01:50;7.68;;;5.80;;
47659;SDS011;33403;43.608;1.458;2023-04-26T03:04:16;9.35;;;6.82;;
47659;SDS011;33403;43.608;1.458;2023-04-26T03:06:42;8.18;;;6.90;;
47659;SDS011;33403;43.608;1.458;2023-04-26T03:09:07;8.55;;;6.50;;
47659;SDS011;33403;43.608;1.458;2023-04-26T03:11:33;7.95;;;6.30;;
47659;SDS011;33403;43.608;1.458;2023-04-26T03:13:59;8.20;;;6.55;;
47659;SDS011;33403;43.608;1.458;2023-04-26T03:16:26;9.20;;;6.55;;
47659;SDS011;33403;43.608;1.458;2023-04-26T03:18:52;9.00;;;6.80;;
47659;SDS011;33403;43.608;1.458;2023-04-26T03:21:18;8.75;;;6.30;;
47659;SDS011;33403;43.608;1.458;2023-04-26T03:23:45;8.15;;;6.80;;
47659;SDS011;33403;43.608;1.458;2023-04-26T03:26:10;10.75;;;7.30;;
47659;SDS011;33403;43.608;1.458;2023-04-26T03:28:36;10.85;;;7.40;;
47659;SDS011;33403;43.608;1.458;2023-04-26T03:31:02;8.55;;;7.38;;
47659;SDS011;33403;43.608;1.458;2023-04-26T03:33:29;9.35;;;7.38;;
47659;SDS011;33403;43.608;1.458;2023-04-26T03:35:55;9.40;;;7.03;;
47659;SDS011;33403;43.608;1.458;2023-04-26T03:38:21;11.40;;;7.25;;
47659;SDS011;33403;43.608;1.458;2023-04-26T03:40:47;10.60;;;7.70;;
47659;SDS011;33403;43.608;1.458;2023-04-26T03:43:13;12.82;;;6.90;;
47659;SDS011;33403;43.608;1.458;2023-04-26T03:45:39;9.13;;;6.90;;
47659;SDS011;33403;43.608;1.458;2023-04-26T03:48:04;10.52;;;7.72;;
47659;SDS011;33403;43.608;1.458;2023-04-26T03:50:30;9.50;;;7.57;;
47659;SDS011;33403;43.608;1.458;2023-04-26T03:52:56;9.25;;;7.50;;
47659;SDS011;33403;43.608;1.458;2023-04-26T03:55:22;9.88;;;7.35;;
47659;SDS011;33403;43.608;1.458;2023-04-26T03:57:47;11.05;;;7.82;;
47659;SDS011;33403;43.608;1.458;2023-04-26T04:00:13;9.45;;;7.18;;
47659;SDS011;33403;43.608;1.458;2023-04-26T04:02:40;11.77;;;7.72;;
47659;SDS011;33403;43.608;1.458;2023-04-26T04:05:06;9.13;;;7.07;;
47659;SDS011;33403;43.608;1.458;2023-04-26T04:07:32;10.18;;;7.07;;
47659;SDS011;33403;43.608;1.458;2023-04-26T04:09:58;10.98;;;7.57;;
47659;SDS011;33403;43.608;1.458;2023-04-26T04:12:24;10.40;;;7.93;;
47659;SDS011;33403;43.608;1.458;2023-04-26T04:14:50;12.55;;;7.55;;
47659;SDS011;33403;43.608;1.458;2023-04-26T04:17:16;9.38;;;7.28;;
47659;SDS011;33403;43.608;1.458;2023-04-26T04:19:42;9.45;;;7.43;;
47659;SDS011;33403;43.608;1.458;2023-04-26T04:22:09;10.63;;;7.72;;
47659;SDS011;33403;43.608;1.458;2023-04-26T04:24:35;10.57;;;7.28;;
47659;SDS011;33403;43.608;1.458;2023-04-26T04:27:01;10.77;;;7.68;;
47659;SDS011;33403;43.608;1.458;2023-04-26T04:29:27;10.43;;;6.82;;
47659;SDS011;33403;43.608;1.458;2023-04-26T04:31:53;9.85;;;7.53;;
47659;SDS011;33403;43.608;1.458;2023-04-26T04:34:19;10.93;;;7.88;;
47659;SDS011;33403;43.608;1.458;2023-04-26T04:36:45;11.05;;;7.45;;
47659;SDS011;33403;43.608;1.458;2023-04-26T04:39:11;12.27;;;7.82;;
47659;SDS011;33403;43.608;1.458;2023-04-26T04:41:40;10.75;;;7.40;;
47659;SDS011;33403;43.608;1.458;2023-04-26T04:44:12;10.95;;;7.90;;
47659;SDS011;33403;43.608;1.458;2023-04-26T04:46:39;13.18;;;8.27;;
47659;SDS011;33403;43.608;1.458;2023-04-26T04:49:05;13.80;;;8.30;;
47659;SDS011;33403;43.608;1.458;2023-04-26T04:51:33;12.40;;;8.32;;
47659;SDS011;33403;43.608;1.458;2023-04-26T04:54:07;12.55;;;8.50;;
47659;SDS011;33403;43.608;1.458;2023-04-26T04:56:36;12.25;;;8.50;;
47659;SDS011;33403;43.608;1.458;2023-04-26T04:59:02;11.27;;;8.02;;
47659;SDS011;33403;43.608;1.458;2023-04-26T05:01:29;13.27;;;9.30;;
47659;SDS011;33403;43.608;1.458;2023-04-26T05:03:57;13.80;;;9.68;;
47659;SDS011;33403;43.608;1.458;2023-04-26T05:06:23;13.93;;;9.90;;
47659;SDS011;33403;43.608;1.458;2023-04-26T05:08:49;12.98;;;8.93;;
47659;SDS011;33403;43.608;1.458;2023-04-26T05:11:15;13.75;;;10.18;;
47659;SDS011;33403;43.608;1.458;2023-04-26T05:13:40;15.75;;;10.45;;
47659;SDS011;33403;43.608;1.458;2023-04-26T05:16:06;16.05;;;11.20;;
47659;SDS011;33403;43.608;1.458;2023-04-26T05:18:32;17.88;;;10.55;;
47659;SDS011;33403;43.608;1.458;2023-04-26T05:20:57;17.05;;;10.00;;
47659;SDS011;33403;43.608;1.458;2023-04-26T05:23:23;16.38;;;10.52;;
47659;SDS011;33403;43.608;1.458;2023-04-26T05:25:48;17.27;;;11.07;;
47659;SDS011;33403;43.608;1.458;2023-04-26T05:28:15;14.07;;;10.13;;
47659;SDS011;33403;43.608;1.458;2023-04-26T05:30:41;15.02;;;10.40;;
47659;SDS011;33403;43.608;1.458;2023-04-26T05:33:07;15.90;;;10.27;;
47659;SDS011;33403;43.608;1.458;2023-04-26T05:35:33;15.77;;;10.70;;
47659;SDS011;33403;43.608;1.458;2023-04-26T05:37:59;12.60;;;9.98;;
47659;SDS011;33403;43.608;1.458;2023-04-26T05:40:25;15.77;;;11.15;;
47659;SDS011;33403;43.608;1.458;2023-04-26T05:42:50;12.95;;;9.80;;
47659;SDS011;33403;43.608;1.458;2023-04-26T05:45:16;13.40;;;9.82;;
47659;SDS011;33403;43.608;1.458;2023-04-26T05:47:42;12.45;;;8.90;;
47659;SDS011;33403;43.608;1.458;2023-04-26T05:50:08;11.95;;;8.82;;
47659;SDS011;33403;43.608;1.458;2023-04-26T05:52:34;10.73;;;8.27;;
47659;SDS011;33403;43.608;1.458;2023-04-26T05:54:59;10.93;;;8.73;;
47659;SDS011;33403;43.608;1.458;2023-04-26T05:57:28;11.73;;;9.05;;
47659;SDS011;33403;43.608;1.458;2023-04-26T05:59:54;14.68;;;10.00;;
47659;SDS011;33403;43.608;1.458;2023-04-26T06:02:20;12.52;;;9.18;;
47659;SDS011;33403;43.608;1.458;2023-04-26T06:04:45;15.93;;;9.65;;
47659;SDS011;33403;43.608;1.458;2023-04-26T06:07:11;11.55;;;8.88;;
47659;SDS011;33403;43.608;1.458;2023-04-26T06:09:37;11.23;;;8.68;;
47659;SDS011;33403;43.608;1.458;2023-04-26T06:12:02;10.65;;;8.02;;
47659;SDS011;33403;43.608;1.458;2023-04-26T06:14:28;9.18;;;7.15;;
47659;SDS011;33403;43.608;1.458;2023-04-26T06:16:55;8.35;;;6.72;;
47659;SDS011;33403;43.608;1.458;2023-04-26T06:19:21;8.75;;;7.00;;
47659;SDS011;33403;43.608;1.458;2023-04-26T06:21:46;9.00;;;6.82;;
47659;SDS011;33403;43.608;1.458;2023-04-26T06:24:13;7.25;;;6.20;;
47659;SDS011;33403;43.608;1.458;2023-04-26T06:26:39;8.43;;;6.47;;
47659;SDS011;33403;43.608;1.458;2023-04-26T06:29:05;7.80;;;5.93;;
47659;SDS011;33403;43.608;1.458;2023-04-26T06:31:31;6.85;;;5.90;;
47659;SDS011;33403;43.608;1.458;2023-04-26T06:33:57;7.57;;;5.90;;
47659;SDS011;33403;43.608;1.458;2023-04-26T06:36:23;6.90;;;5.72;;
47659;SDS011;33403;43.608;1.458;2023-04-26T06:38:49;7.30;;;5.78;;
47659;SDS011;33403;43.608;1.458;2023-04-26T06:41:15;7.70;;;5.78;;
47659;SDS011;33403;43.608;1.458;2023-04-26T06:43:41;7.15;;;5.95;;
47659;SDS011;33403;43.608;1.458;2023-04-26T06:46:06;7.68;;;5.65;;
47659;SDS011;33403;43.608;1.458;2023-04-26T06:48:32;7.18;;;5.68;;
47659;SDS011;33403;43.608;1.458;2023-04-26T06:50:57;6.30;;;5.38;;
47659;SDS011;33403;43.608;1.458;2023-04-26T06:53:23;7.85;;;6.05;;
47659;SDS011;33403;43.608;1.458;2023-04-26T06:55:49;6.47;;;5.30;;
47659;SDS011;33403;43.608;1.458;2023-04-26T06:58:14;7.13;;;5.00;;
47659;SDS011;33403;43.608;1.458;2023-04-26T07:00:40;6.65;;;5.38;;
47659;SDS011;33403;43.608;1.458;2023-04-26T07:03:06;7.05;;;5.28;;
47659;SDS011;33403;43.608;1.458;2023-04-26T07:05:31;6.75;;;5.35;;
47659;SDS011;33403;43.608;1.458;2023-04-26T07:07:57;6.35;;;5.57;;
47659;SDS011;33403;43.608;1.458;2023-04-26T07:10:22;7.25;;;5.55;;
47659;SDS011;33403;43.608;1.458;2023-04-26T07:12:49;7.25;;;5.43;;
47659;SDS011;33403;43.608;1.458;2023-04-26T07:15:15;6.70;;;5.50;;
47659;SDS011;33403;43.608;1.458;2023-04-26T07:17:41;6.55;;;5.82;;
47659;SDS011;33403;43.608;1.458;2023-04-26T07:20:07;7.35;;;5.68;;
47659;SDS011;33403;43.608;1.458;2023-04-26T07:22:33;6.63;;;5.35;;
47659;SDS011;33403;43.608;1.458;2023-04-26T07:24:58;7.22;;;5.60;;
47659;SDS011;33403;43.608;1.458;2023-04-26T07:27:24;7.15;;;5.45;;
47659;SDS011;33403;43.608;1.458;2023-04-26T07:29:52;5.60;;;5.00;;
47659;SDS011;33403;43.608;1.458;2023-04-26T07:32:18;7.80;;;5.55;;
47659;SDS011;33403;43.608;1.458;2023-04-26T07:34:44;7.20;;;5.43;;
47659;SDS011;33403;43.608;1.458;2023-04-26T07:37:10;6.07;;;5.43;;
47659;SDS011;33403;43.608;1.458;2023-04-26T07:39:36;6.35;;;4.90;;
47659;SDS011;33403;43.608;1.458;2023-04-26T07:42:02;6.05;;;4.80;;
47659;SDS011;33403;43.608;1.458;2023-04-26T07:44:27;8.68;;;5.43;;
47659;SDS011;33403;43.608;1.458;2023-04-26T07:46:53;5.95;;;5.35;;
47659;SDS011;33403;43.608;1.458;2023-04-26T07:49:19;5.57;;;5.00;;
47659;SDS011;33403;43.608;1.458;2023-04-26T07:51:44;5.45;;;4.93;;
47659;SDS011;33403;43.608;1.458;2023-04-26T07:54:10;5.85;;;5.15;;
47659;SDS011;33403;43.608;1.458;2023-04-26T07:56:36;6.53;;;5.47;;
47659;SDS011;33403;43.608;1.458;2023-04-26T07:59:01;6.07;;;5.15;;
47659;SDS011;33403;43.608;1.458;2023-04-26T08:01:28;5.85;;;5.25;;
47659;SDS011;33403;43.608;1.458;2023-04-26T08:03:54;5.75;;;4.97;;
47659;SDS011;33403;43.608;1.458;2023-04-26T08:06:20;6.03;;;5.43;;
47659;SDS011;33403;43.608;1.458;2023-04-26T08:08:46;7.25;;;5.25;;
47659;SDS011;33403;43.608;1.458;2023-04-26T08:11:14;9.00;;;5.90;;
47659;SDS011;33403;43.608;1.458;2023-04-26T08:13:40;8.20;;;5.75;;
47659;SDS011;33403;43.608;1.458;2023-04-26T08:16:08;6.75;;;5.97;;
47659;SDS011;33403;43.608;1.458;2023-04-26T08:18:34;6.65;;;5.70;;
47659;SDS011;33403;43.608;1.458;2023-04-26T08:20:59;7.38;;;5.75;;
47659;SDS011;33403;43.608;1.458;2023-04-26T08:23:25;7.78;;;5.78;;
47659;SDS011;33403;43.608;1.458;2023-04-26T08:25:52;7.97;;;7.10;;
47659;SDS011;33403;43.608;1.458;2023-04-26T08:28:18;7.72;;;6.30;;
47659;SDS011;33403;43.608;1.458;2023-04-26T08:30:43;8.63;;;7.20;;
47659;SDS011;33403;43.608;1.458;2023-04-26T08:33:09;7.97;;;6.72;;
47659;SDS011;33403;43.608;1.458;2023-04-26T08:35:35;9.48;;;7.45;;
47659;SDS011;33403;43.608;1.458;2023-04-26T08:38:00;6.65;;;5.95;;
47659;SDS011;33403;43.608;1.458;2023-04-26T08:40:26;6.25;;;5.25;;
47659;SDS011;33403;43.608;1.458;2023-04-26T08:42:52;8.13;;;5.63;;
47659;SDS011;33403;43.608;1.458;2023-04-26T08:45:18;6.90;;;5.28;;
47659;SDS011;33403;43.608;1.458;2023-04-26T08:47:48;8.57;;;5.55;;
47659;SDS011;33403;43.608;1.458;2023-04-26T08:50:21;7.93;;;5.20;;
47659;SDS011;33403;43.608;1.458;2023-04-26T08:52:48;7.63;;;5.53;;
47659;SDS011;33403;43.608;1.458;2023-04-26T08:55:15;7.40;;;5.72;;
47659;SDS011;33403;43.608;1.458;2023-04-26T08:57:42;7.45;;;5.68;;
47659;SDS011;33403;43.608;1.458;2023-04-26T09:00:11;5.93;;;5.32;;
47659;SDS011;33403;43.608;1.458;2023-04-26T09:02:41;5.95;;;5.35;;
47659;SDS011;33403;43.608;1.458;2023-04-26T09:05:10;5.53;;;4.93;;
47659;SDS011;33403;43.608;1.458;2023-04-26T09:07:46;5.13;;;4.63;;
47659;SDS011;33403;43.608;1.458;2023-04-26T09:10:12;4.45;;;4.05;;
47659;SDS011;33403;43.608;1.458;2023-04-26T09:12:41;5.38;;;4.38;;
47659;SDS011;33403;43.608;1.458;2023-04-26T09:15:07;5.60;;;3.88;;
47659;SDS011;33403;43.608;1.458;2023-04-26T09:17:35;4.32;;;3.92;;
47659;SDS011;33403;43.608;1.458;2023-04-26T09:20:18;4.22;;;3.83;;
47659;SDS011;33403;43.608;1.458;2023-04-26T09:23:13;4.40;;;4.00;;
47659;SDS011;33403;43.608;1.458;2023-04-26T09:25:41;5.35;;;4.18;;
47659;SDS011;33403;43.608;1.458;2023-04-26T09:28:17;4.50;;;3.83;;
47659;SDS011;33403;43.608;1.458;2023-04-26T09:30:45;6.22;;;4.50;;
47659;SDS011;33403;43.608;1.458;2023-04-26T09:33:11;5.78;;;4.13;;
47659;SDS011;33403;43.608;1.458;2023-04-26T09:35:37;4.38;;;3.97;;
47659;SDS011;33403;43.608;1.458;2023-04-26T09:38:08;4.28;;;3.90;;
47659;SDS011;33403;43.608;1.458;2023-04-26T09:45:44;5.45;;;4.22;;
47659;SDS011;33403;43.608;1.458;2023-04-26T09:48:21;4.40;;;4.00;;
47659;SDS011;33403;43.608;1.458;2023-04-26T09:50:59;9.15;;;4.95;;
47659;SDS011;33403;43.608;1.458;2023-04-26T09:53:45;17.23;;;6.53;;
47659;SDS011;33403;43.608;1.458;2023-04-26T09:56:17;13.38;;;6.30;;
47659;SDS011;33403;43.608;1.458;2023-04-26T10:01:25;12.93;;;5.78;;
47659;SDS011;33403;43.608;1.458;2023-04-26T10:03:59;9.20;;;5.60;;
47659;SDS011;33403;43.608;1.458;2023-04-26T10:06:26;9.30;;;5.07;;
47659;SDS011;33403;43.608;1.458;2023-04-26T10:08:52;7.90;;;5.50;;
47659;SDS011;33403;43.608;1.458;2023-04-26T10:11:19;8.57;;;5.63;;
47659;SDS011;33403;43.608;1.458;2023-04-26T10:13:45;5.38;;;4.50;;
47659;SDS011;33403;43.608;1.458;2023-04-26T10:16:15;4.75;;;4.25;;
47659;SDS011;33403;43.608;1.458;2023-04-26T10:18:41;6.75;;;5.28;;
47659;SDS011;33403;43.608;1.458;2023-04-26T10:21:11;7.93;;;5.82;;
47659;SDS011;33403;43.608;1.458;2023-04-26T10:23:41;7.65;;;6.25;;
47659;SDS011;33403;43.608;1.458;2023-04-26T10:26:45;8.43;;;5.97;;
47659;SDS011;33403;43.608;1.458;2023-04-26T10:29:16;9.15;;;6.03;;
47659;SDS011;33403;43.608;1.458;2023-04-26T10:34:30;8.48;;;6.15;;
47659;SDS011;33403;43.608;1.458;2023-04-26T10:37:13;8.02;;;5.85;;
47659;SDS011;33403;43.608;1.458;2023-04-26T10:39:43;5.40;;;4.90;;
47659;SDS011;33403;43.608;1.458;2023-04-26T10:42:20;6.60;;;4.95;;
47659;SDS011;33403;43.608;1.458;2023-04-26T10:50:09;6.45;;;5.10;;
47659;SDS011;33403;43.608;1.458;2023-04-26T10:52:36;5.35;;;4.82;;
47659;SDS011;33403;43.608;1.458;2023-04-26T10:55:38;4.70;;;4.22;;
47659;SDS011;33403;43.608;1.458;2023-04-26T10:58:26;5.80;;;4.32;;
47659;SDS011;33403;43.608;1.458;2023-04-26T11:01:36;4.82;;;4.40;;
47659;SDS011;33403;43.608;1.458;2023-04-26T11:06:23;3.20;;;2.90;;
47659;SDS011;33403;43.608;1.458;2023-04-26T11:08:49;4.20;;;3.67;;
47659;SDS011;33403;43.608;1.458;2023-04-26T11:11:16;4.25;;;3.83;;
47659;SDS011;33403;43.608;1.458;2023-04-26T11:13:44;4.00;;;3.60;;
47659;SDS011;33403;43.608;1.458;2023-04-26T11:18:39;3.65;;;3.35;;
47659;SDS011;33403;43.608;1.458;2023-04-26T11:21:06;3.67;;;3.38;;
47659;SDS011;33403;43.608;1.458;2023-04-26T11:23:33;3.88;;;3.30;;
47659;SDS011;33403;43.608;1.458;2023-04-26T11:26:00;4.72;;;4.00;;
47659;SDS011;33403;43.608;1.458;2023-04-26T11:28:28;3.85;;;3.53;;
47659;SDS011;33403;43.608;1.458;2023-04-26T11:30:55;3.20;;;2.90;;
47659;SDS011;33403;43.608;1.458;2023-04-26T11:33:21;4.00;;;2.65;;
47659;SDS011;33403;43.608;1.458;2023-04-26T11:35:48;3.15;;;2.75;;
47659;SDS011;33403;43.608;1.458;2023-04-26T11:38:21;2.90;;;2.67;;
47659;SDS011;33403;43.608;1.458;2023-04-26T11:40:54;3.63;;;2.67;;
47659;SDS011;33403;43.608;1.458;2023-04-26T11:43:21;2.60;;;2.40;;
47659;SDS011;33403;43.608;1.458;2023-04-26T11:45:57;3.88;;;2.83;;
47659;SDS011;33403;43.608;1.458;2023-04-26T11:48:25;2.90;;;2.60;;
47659;SDS011;33403;43.608;1.458;2023-04-26T11:50:52;2.80;;;2.60;;
47659;SDS011;33403;43.608;1.458;2023-04-26T11:53:20;3.00;;;2.70;;
47659;SDS011;33403;43.608;1.458;2023-04-26T11:55:46;3.42;;;2.78;;
47659;SDS011;33403;43.608;1.458;2023-04-26T11:58:12;3.65;;;2.83;;
47659;SDS011;33403;43.608;1.458;2023-04-26T12:03:20;3.15;;;2.65;;
47659;SDS011;33403;43.608;1.458;2023-04-26T12:05:52;3.17;;;2.10;;
47659;SDS011;33403;43.608;1.458;2023-04-26T12:08:22;2.58;;;2.10;;
47659;SDS011;33403;43.608;1.458;2023-04-26T12:10:51;4.13;;;2.50;;
47659;SDS011;33403;43.608;1.458;2023-04-26T12:13:18;4.00;;;2.55;;
47659;SDS011;33403;43.608;1.458;2023-04-26T12:15:44;2.50;;;2.30;;
47659;SDS011;33403;43.608;1.458;2023-04-26T12:18:11;2.40;;;2.20;;
47659;SDS011;33403;43.608;1.458;2023-04-26T12:20:37;3.45;;;1.90;;
47659;SDS011;33403;43.608;1.458;2023-04-26T12:23:05;3.03;;;2.03;;
47659;SDS011;33403;43.608;1.458;2023-04-26T12:25:38;1.60;;;1.50;;
47659;SDS011;33403;43.608;1.458;2023-04-26T12:28:05;1.90;;;1.70;;
47659;SDS011;33403;43.608;1.458;2023-04-26T12:30:35;2.00;;;1.90;;
47659;SDS011;33403;43.608;1.458;2023-04-26T12:33:02;2.35;;;2.15;;
47659;SDS011;33403;43.608;1.458;2023-04-26T12:35:28;2.03;;;1.85;;
47659;SDS011;33403;43.608;1.458;2023-04-26T12:37:54;4.63;;;1.67;;
47659;SDS011;33403;43.608;1.458;2023-04-26T12:40:21;1.85;;;1.70;;
47659;SDS011;33403;43.608;1.458;2023-04-26T12:42:48;1.92;;;1.70;;
47659;SDS011;33403;43.608;1.458;2023-04-26T12:45:14;3.05;;;1.52;;
47659;SDS011;33403;43.608;1.458;2023-04-26T12:47:42;1.70;;;1.60;;
47659;SDS011;33403;43.608;1.458;2023-04-26T12:50:08;1.80;;;1.65;;
47659;SDS011;33403;43.608;1.458;2023-04-26T12:52:36;2.10;;;1.83;;
47659;SDS011;33403;43.608;1.458;2023-04-26T12:55:06;3.17;;;1.92;;
47659;SDS011;33403;43.608;1.458;2023-04-26T12:57:33;2.00;;;1.90;;
47659;SDS011;33403;43.608;1.458;2023-04-26T13:00:00;2.30;;;2.10;;
47659;SDS011;33403;43.608;1.458;2023-04-26T13:02:25;2.35;;;2.15;;
47659;SDS011;33403;43.608;1.458;2023-04-26T13:04:51;3.50;;;1.80;;
47659;SDS011;33403;43.608;1.458;2023-04-26T13:07:17;2.40;;;2.10;;
47659;SDS011;33403;43.608;1.458;2023-04-26T13:09:44;2.80;;;2.00;;
47659;SDS011;33403;43.608;1.458;2023-04-26T13:12:10;3.05;;;2.10;;
47659;SDS011;33403;43.608;1.458;2023-04-26T13:14:35;2.00;;;1.80;;
47659;SDS011;33403;43.608;1.458;2023-04-26T13:17:03;2.58;;;2.08;;
47659;SDS011;33403;43.608;1.458;2023-04-26T13:19:28;2.70;;;2.47;;
47659;SDS011;33403;43.608;1.458;2023-04-26T13:21:54;3.08;;;2.50;;
47659;SDS011;33403;43.608;1.458;2023-04-26T13:24:20;3.42;;;2.40;;
47659;SDS011;33403;43.608;1.458;2023-04-26T13:26:45;6.13;;;3.20;;
47659;SDS011;33403;43.608;1.458;2023-04-26T13:29:11;3.15;;;2.78;;
47659;SDS011;33403;43.608;1.458;2023-04-26T13:31:36;2.50;;;2.30;;
47659;SDS011;33403;43.608;1.458;2023-04-26T13:34:03;2.97;;;2.33;;
47659;SDS011;33403;43.608;1.458;2023-04-26T13:36:29;4.47;;;2.03;;
47659;SDS011;33403;43.608;1.458;2023-04-26T13:38:56;2.20;;;2.00;;
47659;SDS011;33403;43.608;1.458;2023-04-26T13:41:22;4.25;;;2.97;;
47659;SDS011;33403;43.608;1.458;2023-04-26T13:43:48;4.28;;;3.20;;
47659;SDS011;33403;43.608;1.458;2023-04-26T13:46:14;2.22;;;2.03;;
47659;SDS011;33403;43.608;1.458;2023-04-26T13:48:39;2.70;;;2.50;;
47659;SDS011;33403;43.608;1.458;2023-04-26T13:51:05;2.80;;;2.40;;
47659;SDS011;33403;43.608;1.458;2023-04-26T13:53:31;2.40;;;2.20;;
47659;SDS011;33403;43.608;1.458;2023-04-26T13:55:57;1.80;;;1.70;;
47659;SDS011;33403;43.608;1.458;2023-04-26T13:58:22;2.85;;;1.98;;
47659;SDS011;33403;43.608;1.458;2023-04-26T14:00:48;2.15;;;1.75;;
47659;SDS011;33403;43.608;1.458;2023-04-26T14:03:13;2.20;;;2.00;;
47659;SDS011;33403;43.608;1.458;2023-04-26T14:05:39;1.60;;;1.50;;
47659;SDS011;33403;43.608;1.458;2023-04-26T14:08:05;2.78;;;1.67;;
47659;SDS011;33403;43.608;1.458;2023-04-26T14:10:32;1.80;;;1.52;;
47659;SDS011;33403;43.608;1.458;2023-04-26T14:12:58;4.70;;;1.90;;
47659;SDS011;33403;43.608;1.458;2023-04-26T14:15:23;10.45;;;2.55;;
47659;SDS011;33403;43.608;1.458;2023-04-26T14:17:49;19.85;;;3.40;;
47659;SDS011;33403;43.608;1.458;2023-04-26T14:20:15;11.98;;;2.65;;
47659;SDS011;33403;43.608;1.458;2023-04-26T14:22:41;6.65;;;2.40;;
47659;SDS011;33403;43.608;1.458;2023-04-26T14:25:07;4.55;;;1.90;;
47659;SDS011;33403;43.608;1.458;2023-04-26T14:27:33;2.10;;;1.90;;
47659;SDS011;33403;43.608;1.458;2023-04-26T14:29:59;2.22;;;1.85;;
47659;SDS011;33403;43.608;1.458;2023-04-26T14:32:25;2.15;;;1.85;;
47659;SDS011;33403;43.608;1.458;2023-04-26T14:34:50;4.28;;;2.03;;
47659;SDS011;33403;43.608;1.458;2023-04-26T14:37:16;3.20;;;1.60;;
47659;SDS011;33403;43.608;1.458;2023-04-26T14:39:46;1.63;;;1.40;;
47659;SDS011;33403;43.608;1.458;2023-04-26T14:42:13;2.72;;;1.50;;
47659;SDS011;33403;43.608;1.458;2023-04-26T14:44:38;3.22;;;1.60;;
47659;SDS011;33403;43.608;1.458;2023-04-26T14:47:04;2.65;;;1.52;;
47659;SDS011;33403;43.608;1.458;2023-04-26T14:49:30;6.38;;;2.03;;
47659;SDS011;33403;43.608;1.458;2023-04-26T14:51:55;2.83;;;1.50;;
47659;SDS011;33403;43.608;1.458;2023-04-26T14:54:21;1.75;;;1.60;;
47659;SDS011;33403;43.608;1.458;2023-04-26T14:56:47;1.77;;;1.50;;
47659;SDS011;33403;43.608;1.458;2023-04-26T14:59:12;2.33;;;1.40;;
47659;SDS011;33403;43.608;1.458;2023-04-26T15:01:38;5.05;;;1.90;;
47659;SDS011;33403;43.608;1.458;2023-04-26T15:04:04;2.47;;;1.60;;
47659;SDS011;33403;43.608;1.458;2023-04-26T15:06:29;3.75;;;1.50;;
47659;SDS011;33403;43.608;1.458;2023-04-26T15:08:56;2.90;;;1.55;;